Time;durP1;ratioP1;P1;durP2;ratioP2;P2;SDS_P1;SDS_P2;PMS_P1;PMS_P2;Temp;Humidity;BMP_temperature;BMP_pressure;BME280_temperature;BME280_humidity;BME280_pressure;Samples;Min_cycle;Max_cycle;Signal;HPM_P1;HPM_P2
2021/06/03 00:05:00;;;;;;;;;;;16.00;99.90;;;;;;10465893;28;19924;-66
2021/06/03 00:10:04;;;;;;;;;;;16.00;99.90;;;;;;10466347;28;19928;-66
2021/06/03 00:15:09;;;;;;;;;;;16.00;99.90;;;;;;10445237;28;20241;-66
2021/06/03 00:20:12;;;;;;;;;;;16.00;99.90;;;;;;10463031;28;19928;-66
2021/06/03 00:25:14;;;;;;;;;;;15.80;99.90;;;;;;10468229;28;20432;-65
2021/06/03 00:30:16;;;;;;;;;;;15.80;99.90;;;;;;10478023;28;19928;-66
2021/06/03 00:35:19;;;;;;;;;;;15.70;99.90;;;;;;10467335;28;19925;-65
2021/06/03 00:40:22;;;;;;;;;;;15.40;99.90;;;;;;10469415;28;19974;-65
2021/06/03 00:45:29;;;;;;;;;;;15.30;99.90;;;;;;10463240;28;19924;-66
2021/06/03 00:50:33;;;;;;;;;;;15.10;99.90;;;;;;10477125;28;20299;-65
2021/06/03 00:55:36;;;;;;;;;;;15.20;99.90;;;;;;10464701;28;19932;-65
2021/06/03 01:00:38;;;;;;;;;;;15.10;99.90;;;;;;10488826;28;19928;-66
2021/06/03 01:05:44;;;;;;;;;;;14.80;99.90;;;;;;10475420;28;19929;-65
2021/06/03 01:10:48;;;;;;;;;;;14.80;99.90;;;;;;10449090;28;20308;-66
2021/06/03 01:15:50;;;;;;;;;;;14.80;99.90;;;;;;10465588;28;20289;-66
2021/06/03 01:20:54;;;;;;;;;;;14.90;99.90;;;;;;10486499;28;20030;-66
2021/06/03 01:25:56;;;;;;;;;;;14.90;99.90;;;;;;10487330;28;19935;-66
2021/06/03 01:30:58;;;;;;;;;;;14.80;99.90;;;;;;10487012;28;20027;-65
2021/06/03 01:36:02;;;;;;;;;;;14.50;99.90;;;;;;10466919;28;19924;-66
2021/06/03 01:41:05;;;;;;;;;;;14.60;99.90;;;;;;10458687;28;19929;-65
2021/06/03 01:46:07;;;;;;;;;;;14.50;99.90;;;;;;10487341;28;20034;-65
2021/06/03 01:51:11;;;;;;;;;;;14.40;99.90;;;;;;10478810;28;20024;-65
2021/06/03 01:56:13;;;;;;;;;;;14.40;99.90;;;;;;10471386;28;19928;-65
2021/06/03 02:01:18;;;;;;;;;;;14.20;99.90;;;;;;10466252;28;19928;-65
2021/06/03 02:06:20;;;;;;;;;;;14.20;99.90;;;;;;10466073;28;20308;-66
2021/06/03 02:11:22;;;;;;;;;;;14.20;99.90;;;;;;10474384;28;19933;-65
2021/06/03 02:16:24;;;;;;;;;;;14.20;99.90;;;;;;10469068;28;19924;-66
2021/06/03 02:21:26;;;;;;;;;;;14.20;99.90;;;;;;10486166;28;20028;-65
2021/06/03 02:26:28;;;;;;;;;;;13.90;99.90;;;;;;10484182;28;20011;-66
2021/06/03 02:31:31;;;;;;;;;;;13.80;99.90;;;;;;10481251;28;19934;-65
2021/06/03 02:36:33;;;;;;;;;;;13.70;99.90;;;;;;10476737;28;20015;-66
2021/06/03 02:41:35;;;;;;;;;;;13.80;99.90;;;;;;10469885;28;20039;-66
2021/06/03 02:46:37;;;;;;;;;;;13.70;99.90;;;;;;10454518;28;19984;-66
2021/06/03 02:51:39;;;;;;;;;;;13.70;99.90;;;;;;10484322;28;19982;-66
2021/06/03 02:56:40;;;;;;;;;;;13.50;99.90;;;;;;10478537;28;20452;-66
2021/06/03 03:01:42;;;;;;;;;;;13.40;99.90;;;;;;10463794;28;19928;-65
2021/06/03 03:06:44;;;;;;;;;;;13.30;99.90;;;;;;10455833;28;19928;-66
2021/06/03 03:11:46;;;;;;;;;;;13.20;99.90;;;;;;10468296;28;19967;-66
2021/06/03 03:16:48;;;;;;;;;;;13.30;99.90;;;;;;10450214;28;19947;-65
2021/06/03 03:21:49;;;;;;;;;;;13.50;99.90;;;;;;10479597;28;19924;-66
2021/06/03 03:26:51;;;;;;;;;;;13.40;99.90;;;;;;10453088;28;20045;-66
2021/06/03 03:31:53;;;;;;;;;;;13.40;99.90;;;;;;10478391;28;19939;-66
2021/06/03 03:36:55;;;;;;;;;;;13.20;99.90;;;;;;10474650;28;19928;-66
2021/06/03 03:41:57;;;;;;;;;;;13.20;99.90;;;;;;10434275;28;19964;-66
2021/06/03 03:46:59;;;;;;;;;;;13.20;99.90;;;;;;10476837;28;20425;-65
2021/06/03 03:52:03;;;;;;;;;;;13.30;99.90;;;;;;10463727;28;19928;-66
2021/06/03 03:57:05;;;;;;;;;;;13.30;99.90;;;;;;10490490;28;19925;-66
2021/06/03 04:02:06;;;;;;;;;;;13.40;99.90;;;;;;10470525;28;19925;-66
2021/06/03 04:07:08;;;;;;;;;;;13.50;99.90;;;;;;10458198;28;20023;-65
2021/06/03 04:12:10;;;;;;;;;;;13.60;99.90;;;;;;10487835;28;19931;-66
2021/06/03 04:17:12;;;;;;;;;;;13.90;99.90;;;;;;10471893;28;19982;-66
2021/06/03 04:22:14;;;;;;;;;;;14.40;99.90;;;;;;10492940;28;19924;-66
2021/06/03 04:27:16;;;;;;;;;;;16.70;99.90;;;;;;10486871;28;19947;-65
2021/06/03 04:32:18;;;;;;;;;;;19.50;99.90;;;;;;10475018;28;19928;-66
2021/06/03 04:37:21;;;;;;;;;;;21.90;97.20;;;;;;10481479;28;19925;-66
2021/06/03 04:42:23;;;;;;;;;;;22.50;90.70;;;;;;10453745;28;19928;-66
2021/06/03 04:47:24;;;;;;;;;;;24.10;78.10;;;;;;10472900;28;19929;-65
2021/06/03 04:52:30;;;;;;;;;;;25.40;67.40;;;;;;10461426;28;20368;-66
2021/06/03 04:57:33;;;;;;;;;;;26.90;59.00;;;;;;10490414;28;19924;-66
2021/06/03 05:02:35;;;;;;;;;;;27.70;55.30;;;;;;10465122;28;19925;-66
2021/06/03 05:07:37;;;;;;;;;;;25.10;56.00;;;;;;10451023;28;20005;-66
2021/06/03 05:12:39;;;;;;;;;;;22.80;63.30;;;;;;10487969;28;20441;-66
2021/06/03 05:17:41;;;;;;;;;;;23.20;62.70;;;;;;10439935;28;19924;-66
2021/06/03 05:22:44;;;;;;;;;;;22.10;65.30;;;;;;10483687;28;20007;-66
2021/06/03 05:27:46;;;;;;;;;;;24.40;63.20;;;;;;10472474;28;19925;-66
2021/06/03 05:32:48;;;;;;;;;;;25.00;57.80;;;;;;10433165;28;19925;-66
2021/06/03 05:37:50;;;;;;;;;;;23.00;61.60;;;;;;10487974;28;19924;-66
2021/06/03 05:42:53;;;;;;;;;;;22.40;63.60;;;;;;10453855;28;20339;-66
2021/06/03 05:47:55;;;;;;;;;;;21.70;65.00;;;;;;10478537;28;20034;-65
2021/06/03 05:52:57;;;;;;;;;;;21.20;68.30;;;;;;10471365;28;20288;-66
2021/06/03 05:57:59;;;;;;;;;;;20.40;70.50;;;;;;10488912;28;19924;-66
2021/06/03 06:03:09;;;;;;;;;;;20.40;72.90;;;;;;10458526;28;19931;-66
2021/06/03 06:08:11;;;;;;;;;;;20.50;73.80;;;;;;10463726;28;20127;-66
2021/06/03 06:13:13;;;;;;;;;;;20.80;74.60;;;;;;10462762;28;19935;-66
2021/06/03 06:18:14;;;;;;;;;;;21.10;71.70;;;;;;10454537;28;20390;-65
2021/06/03 06:23:17;;;;;;;;;;;21.10;71.90;;;;;;10461367;28;20027;-65
2021/06/03 06:28:19;;;;;;;;;;;21.60;70.30;;;;;;10466252;28;19978;-65
2021/06/03 06:33:21;;;;;;;;;;;21.80;70.10;;;;;;10477718;28;19929;-66
2021/06/03 06:38:23;;;;;;;;;;;21.70;69.40;;;;;;10468643;28;19933;-66
2021/06/03 06:43:26;;;;;;;;;;;21.90;68.80;;;;;;10454956;28;20430;-66
2021/06/03 06:48:28;;;;;;;;;;;22.20;68.40;;;;;;10447567;28;19931;-65
2021/06/03 06:53:30;;;;;;;;;;;22.20;67.50;;;;;;10453040;28;19925;-66
2021/06/03 06:58:31;;;;;;;;;;;22.50;67.10;;;;;;10447277;28;19947;-66
2021/06/03 07:03:33;;;;;;;;;;;22.90;65.40;;;;;;10445497;28;21235;-66
2021/06/03 07:08:35;;;;;;;;;;;23.10;66.10;;;;;;10479634;28;19976;-65
2021/06/03 07:13:37;;;;;;;;;;;23.20;65.60;;;;;;10479124;28;19925;-66
2021/06/03 07:18:39;;;;;;;;;;;23.10;67.50;;;;;;10473574;28;19924;-65
2021/06/03 07:23:41;;;;;;;;;;;23.40;66.80;;;;;;10472655;28;19924;-66
2021/06/03 07:28:43;;;;;;;;;;;23.40;65.60;;;;;;10447296;28;20020;-66
2021/06/03 07:33:45;;;;;;;;;;;23.40;65.10;;;;;;10458584;28;19943;-66
2021/06/03 07:38:46;;;;;;;;;;;23.20;65.00;;;;;;10475645;28;19933;-66
2021/06/03 07:43:48;;;;;;;;;;;23.50;64.90;;;;;;10483669;28;19931;-66
2021/06/03 07:48:50;;;;;;;;;;;23.60;63.90;;;;;;10463881;28;20023;-66
2021/06/03 07:53:52;;;;;;;;;;;23.80;65.00;;;;;;10479122;28;19924;-66
2021/06/03 07:58:53;;;;;;;;;;;24.10;63.40;;;;;;10458682;28;20256;-65
2021/06/03 08:03:55;;;;;;;;;;;25.50;60.70;;;;;;10475670;28;19924;-66
2021/06/03 08:08:58;;;;;;;;;;;26.10;59.10;;;;;;10457383;28;19935;-66
2021/06/03 08:14:00;;;;;;;;;;;27.10;57.60;;;;;;10458141;28;19924;-66
2021/06/03 08:19:02;;;;;;;;;;;27.00;56.70;;;;;;10458068;28;19928;-66
2021/06/03 08:24:05;;;;;;;;;;;28.30;54.80;;;;;;10447774;28;20425;-66
2021/06/03 08:29:07;;;;;;;;;;;28.60;53.40;;;;;;10491774;28;19928;-64
2021/06/03 08:34:08;;;;;;;;;;;27.40;54.20;;;;;;10450269;28;19925;-64
2021/06/03 08:39:10;;;;;;;;;;;26.20;57.40;;;;;;10428072;28;20152;-64
2021/06/03 08:44:12;;;;;;;;;;;25.60;58.50;;;;;;10452837;28;19931;-64
2021/06/03 08:49:14;;;;;;;;;;;25.50;59.60;;;;;;10456009;28;19932;-64
2021/06/03 08:54:22;;;;;;;;;;;25.00;59.80;;;;;;10460818;28;19964;-64
2021/06/03 08:59:24;;;;;;;;;;;24.30;63.30;;;;;;10476872;28;20284;-64
2021/06/03 09:04:26;;;;;;;;;;;24.60;62.50;;;;;;10488934;28;19924;-64
2021/06/03 09:09:28;;;;;;;;;;;24.50;63.30;;;;;;10511008;28;19924;-64
2021/06/03 09:14:30;;;;;;;;;;;24.50;62.90;;;;;;10493277;28;20023;-64
2021/06/03 09:19:32;;;;;;;;;;;24.60;64.20;;;;;;10463133;28;19925;-64
2021/06/03 09:24:34;;;;;;;;;;;25.10;65.20;;;;;;10468860;28;19940;-65
2021/06/03 09:29:37;;;;;;;;;;;25.90;62.30;;;;;;10457975;28;19924;-65
2021/06/03 09:34:39;;;;;;;;;;;26.70;59.00;;;;;;10490430;28;20398;-65
2021/06/03 09:39:43;;;;;;;;;;;27.10;58.50;;;;;;10492353;28;20353;-65
2021/06/03 09:44:56;;;;;;;;;;;27.30;57.30;;;;;;10445659;28;19932;-65
2021/06/03 09:50:00;;;;;;;;;;;27.50;56.90;;;;;;10449304;28;20373;-65
2021/06/03 09:55:04;;;;;;;;;;;28.00;57.30;;;;;;10477555;28;19924;-65
2021/06/03 10:00:07;;;;;;;;;;;28.20;57.60;;;;;;10490621;28;19931;-65
2021/06/03 10:05:13;;;;;;;;;;;28.10;55.70;;;;;;10480109;28;19965;-65
2021/06/03 10:10:15;;;;;;;;;;;27.70;56.20;;;;;;10489712;28;20394;-65
2021/06/03 10:15:20;;;;;;;;;;;26.60;58.30;;;;;;10463305;28;20293;-65
2021/06/03 10:20:30;;;;;;;;;;;26.70;58.20;;;;;;10466966;28;19925;-65
2021/06/03 10:25:32;;;;;;;;;;;26.40;60.20;;;;;;10488570;28;19931;-65
2021/06/03 10:30:39;;;;;;;;;;;26.70;59.50;;;;;;10489348;28;20408;-65
2021/06/03 10:35:44;;;;;;;;;;;26.60;59.50;;;;;;10430425;28;20260;-65
2021/06/03 10:40:47;;;;;;;;;;;26.20;60.90;;;;;;10447209;28;20296;-65
2021/06/03 10:45:49;;;;;;;;;;;26.20;62.30;;;;;;10488173;28;19962;-65
2021/06/03 10:50:53;;;;;;;;;;;26.10;62.40;;;;;;10488698;28;19970;-65
2021/06/03 10:55:56;;;;;;;;;;;25.60;64.30;;;;;;10446695;28;19935;-65
2021/06/03 11:01:09;;;;;;;;;;;25.30;64.40;;;;;;10447098;28;20019;-65
2021/06/03 11:06:12;;;;;;;;;;;25.60;63.30;;;;;;10474152;28;19924;-65
2021/06/03 11:11:14;;;;;;;;;;;25.40;61.60;;;;;;10487608;28;19924;-65
2021/06/03 11:16:19;;;;;;;;;;;25.20;65.10;;;;;;10488014;28;19925;-65
2021/06/03 11:21:42;;;;;;;;;;;25.30;62.30;;;;;;10472930;28;19928;-65
2021/06/03 11:26:44;;;;;;;;;;;25.50;63.70;;;;;;10486939;28;20026;-64
2021/06/03 11:31:45;;;;;;;;;;;25.60;66.20;;;;;;10487787;28;19928;-64
2021/06/03 11:37:01;;;;;;;;;;;25.40;64.50;;;;;;10487242;28;19924;-65
2021/06/03 11:42:18;;;;;;;;;;;25.80;62.70;;;;;;10484539;28;20003;-64
2021/06/03 11:47:20;;;;;;;;;;;25.90;61.40;;;;;;10445814;28;19939;-64
2021/06/03 11:52:22;;;;;;;;;;;25.90;60.90;;;;;;10445657;28;19924;-65
2021/06/03 11:57:26;;;;;;;;;;;25.90;61.10;;;;;;10479777;28;19934;-65
2021/06/03 12:02:30;;;;;;;;;;;25.70;64.10;;;;;;10487462;28;19935;-64
2021/06/03 12:07:43;;;;;;;;;;;25.20;66.20;;;;;;10486445;28;19963;-64
2021/06/03 12:12:45;;;;;;;;;;;25.10;67.40;;;;;;10467516;28;19929;-64
2021/06/03 12:17:47;;;;;;;;;;;25.00;65.90;;;;;;10451190;28;19968;-65
2021/06/03 12:22:49;;;;;;;;;;;25.00;70.00;;;;;;10491161;28;20287;-64
2021/06/03 12:27:51;;;;;;;;;;;25.20;70.50;;;;;;10494484;28;19931;-65
2021/06/03 12:33:00;;;;;;;;;;;25.30;70.80;;;;;;10467147;28;19925;-65
2021/06/03 12:38:03;;;;;;;;;;;25.20;72.70;;;;;;10487950;28;20003;-65
2021/06/03 12:43:07;;;;;;;;;;;24.70;75.50;;;;;;10493992;28;19934;-65
2021/06/03 12:48:11;;;;;;;;;;;24.30;80.70;;;;;;10475739;28;20388;-65
2021/06/03 12:53:15;;;;;;;;;;;23.90;86.90;;;;;;10456740;28;19929;-65
2021/06/03 12:58:18;;;;;;;;;;;23.40;93.30;;;;;;10451738;28;19931;-65
2021/06/03 13:03:26;;;;;;;;;;;22.60;99.90;;;;;;10451054;28;19971;-65
2021/06/03 13:08:40;;;;;;;;;;;22.30;99.90;;;;;;10451715;28;19929;-64
2021/06/03 13:13:42;;;;;;;;;;;22.40;99.90;;;;;;10452369;28;19996;-65
2021/06/03 13:18:44;;;;;;;;;;;22.80;99.90;;;;;;10488912;28;19925;-65
2021/06/03 13:23:46;;;;;;;;;;;22.80;99.90;;;;;;10474032;28;20465;-65
2021/06/03 13:28:47;;;;;;;;;;;22.70;99.90;;;;;;10491396;28;19934;-65
2021/06/03 13:33:49;;;;;;;;;;;23.00;99.90;;;;;;10472679;28;20119;-65
2021/06/03 13:38:51;;;;;;;;;;;23.30;99.90;;;;;;10491745;28;19924;-66
2021/06/03 13:44:00;;;;;;;;;;;23.60;99.90;;;;;;10491394;28;20015;-65
2021/06/03 13:49:02;;;;;;;;;;;23.90;99.90;;;;;;10490498;28;20390;-65
2021/06/03 13:54:04;;;;;;;;;;;24.50;99.90;;;;;;10460168;28;19925;-65
2021/06/03 13:59:12;;;;;;;;;;;25.00;99.90;;;;;;10449459;28;20254;-65
2021/06/03 14:04:15;;;;;;;;;;;25.30;99.90;;;;;;10448767;28;20521;-65
2021/06/03 14:09:20;;;;;;;;;;;25.10;99.90;;;;;;10449061;28;19971;-65
2021/06/03 14:14:25;;;;;;;;;;;25.40;99.90;;;;;;10458817;28;19932;-65
2021/06/03 14:19:32;;;;;;;;;;;25.10;99.90;;;;;;10489450;28;19928;-65
2021/06/03 14:24:43;;;;;;;;;;;24.90;99.90;;;;;;10489464;28;19970;-65
2021/06/03 14:29:52;;;;;;;;;;;25.20;99.90;;;;;;10489580;28;20291;-65
2021/06/03 14:35:06;;;;;;;;;;;25.20;99.90;;;;;;10489338;28;20023;-65
2021/06/03 14:40:26;;;;;;;;;;;25.70;99.90;;;;;;10478821;28;20217;-65
2021/06/03 14:45:28;;;;;;;;;;;26.20;99.90;;;;;;10448061;28;19928;-65
2021/06/03 14:50:32;;;;;;;;;;;26.10;99.90;;;;;;10429640;28;19924;-65
2021/06/03 14:55:35;;;;;;;;;;;25.90;99.90;;;;;;10447282;28;19925;-65
2021/06/03 15:00:39;;;;;;;;;;;25.50;99.90;;;;;;10447163;28;19931;-65
2021/06/03 15:05:41;;;;;;;;;;;25.30;99.90;;;;;;10448230;28;19925;-65
2021/06/03 15:10:44;;;;;;;;;;;25.10;99.90;;;;;;10447478;28;20046;-65
2021/06/03 15:16:03;;;;;;;;;;;25.20;99.90;;;;;;10422506;28;20143;-65
2021/06/03 15:21:05;;;;;;;;;;;25.40;99.90;;;;;;10470243;28;19975;-65
2021/06/03 15:26:07;;;;;;;;;;;25.40;99.90;;;;;;10486719;28;19976;-65
2021/06/03 15:31:09;;;;;;;;;;;25.40;99.90;;;;;;10487780;28;19924;-65
2021/06/03 15:36:11;;;;;;;;;;;25.70;99.90;;;;;;10487690;28;19929;-65
2021/06/03 15:41:13;;;;;;;;;;;25.70;99.90;;;;;;10485689;28;19924;-65
2021/06/03 15:46:14;;;;;;;;;;;25.80;99.90;;;;;;10486978;28;19928;-65
2021/06/03 15:51:17;;;;;;;;;;;25.60;99.90;;;;;;10484853;28;19925;-65
2021/06/03 15:56:19;;;;;;;;;;;25.40;99.90;;;;;;10436100;28;19925;-65
2021/06/03 16:01:21;;;;;;;;;;;25.30;99.90;;;;;;10453789;28;20291;-65
2021/06/03 16:06:23;;;;;;;;;;;25.30;99.90;;;;;;10453935;28;19932;-65
2021/06/03 16:11:24;;;;;;;;;;;25.10;99.90;;;;;;10465171;28;19933;-65
2021/06/03 16:16:26;;;;;;;;;;;25.00;99.90;;;;;;10490460;28;19928;-65
2021/06/03 16:21:28;;;;;;;;;;;24.90;99.90;;;;;;10483192;28;19929;-65
2021/06/03 16:26:30;;;;;;;;;;;24.90;99.90;;;;;;10489008;28;19935;-65
2021/06/03 16:31:33;;;;;;;;;;;24.90;99.90;;;;;;10472067;28;20014;-65
2021/06/03 16:36:35;;;;;;;;;;;24.80;99.90;;;;;;10473332;28;19929;-65
2021/06/03 16:41:37;;;;;;;;;;;24.90;99.90;;;;;;10491148;28;20031;-65
2021/06/03 16:46:39;;;;;;;;;;;25.00;99.90;;;;;;10488519;28;20047;-64
2021/06/03 16:51:41;;;;;;;;;;;24.30;99.90;;;;;;10490529;28;20284;-65
2021/06/03 16:56:43;;;;;;;;;;;23.30;99.90;;;;;;10457626;28;19932;-65
2021/06/03 18:05:23;;;;;;;;;;;16.50;99.90;;;;;;10567053;27;19916;-67
2021/06/03 18:10:25;;;;;;;;;;;17.60;99.90;;;;;;10563007;28;20363;-67
2021/06/03 18:15:27;;;;;;;;;;;17.90;99.90;;;;;;10523944;28;20007;-67
2021/06/03 18:20:30;;;;;;;;;;;18.10;99.90;;;;;;10529006;28;20438;-67
2021/06/03 18:25:32;;;;;;;;;;;17.90;99.90;;;;;;10564633;28;19928;-67
2021/06/03 18:30:34;;;;;;;;;;;18.00;99.90;;;;;;10536855;28;19974;-67
2021/06/03 18:35:38;;;;;;;;;;;18.10;99.90;;;;;;10523504;28;19947;-67
2021/06/03 18:40:40;;;;;;;;;;;18.40;99.90;;;;;;10521898;28;20007;-67
2021/06/03 18:45:43;;;;;;;;;;;18.30;99.90;;;;;;10522911;28;20015;-67
2021/06/03 18:50:45;;;;;;;;;;;18.10;99.90;;;;;;10523549;28;20137;-66
2021/06/03 18:55:48;;;;;;;;;;;18.10;99.90;;;;;;10561307;28;19924;-67
2021/06/03 19:00:54;;;;;;;;;;;18.10;99.90;;;;;;10564218;28;20379;-67
2021/06/03 19:05:56;;;;;;;;;;;18.00;99.90;;;;;;10530428;28;19924;-67
2021/06/03 19:10:58;;;;;;;;;;;18.00;99.90;;;;;;10534421;28;19924;-67
2021/06/03 19:16:00;;;;;;;;;;;18.10;99.90;;;;;;10528081;28;20030;-67
2021/06/03 19:21:06;;;;;;;;;;;18.00;99.90;;;;;;10533563;28;20210;-67
2021/06/03 19:26:08;;;;;;;;;;;17.70;99.90;;;;;;10532990;28;19978;-67
2021/06/03 19:31:11;;;;;;;;;;;17.70;99.90;;;;;;10534015;28;20027;-67
2021/06/03 19:36:13;;;;;;;;;;;17.70;99.90;;;;;;10532867;28;19950;-67
2021/06/03 19:41:14;;;;;;;;;;;17.50;99.90;;;;;;10533013;28;19971;-67
2021/06/03 19:46:16;;;;;;;;;;;17.60;99.90;;;;;;10530014;28;19923;-66
2021/06/03 19:51:18;;;;;;;;;;;17.50;99.90;;;;;;10531281;28;20350;-67
2021/06/03 19:56:22;;;;;;;;;;;17.50;99.90;;;;;;10531721;28;19924;-67
2021/06/03 20:01:26;;;;;;;;;;;17.70;99.90;;;;;;10530909;28;20339;-67
2021/06/03 20:06:28;;;;;;;;;;;17.70;99.90;;;;;;10489739;28;19928;-67
2021/06/03 20:11:31;;;;;;;;;;;17.80;99.90;;;;;;10509942;28;19928;-67
2021/06/03 20:16:33;;;;;;;;;;;17.70;99.90;;;;;;10516341;28;19974;-67
2021/06/03 20:21:35;;;;;;;;;;;17.70;99.90;;;;;;10531840;28;20509;-67
2021/06/03 20:26:37;;;;;;;;;;;17.70;99.90;;;;;;10529332;28;19928;-67
2021/06/03 20:31:39;;;;;;;;;;;17.60;99.90;;;;;;10530023;28;19923;-67
2021/06/03 20:36:41;;;;;;;;;;;17.50;99.90;;;;;;10528887;28;20297;-67
2021/06/03 20:41:43;;;;;;;;;;;17.50;99.90;;;;;;10489598;28;19931;-67
2021/06/03 20:46:46;;;;;;;;;;;17.40;99.90;;;;;;10489881;28;20019;-67
2021/06/03 20:51:48;;;;;;;;;;;17.30;99.90;;;;;;10489658;28;20318;-67
2021/06/03 20:56:50;;;;;;;;;;;17.20;99.90;;;;;;10489930;28;19924;-67
2021/06/03 21:01:52;;;;;;;;;;;17.20;99.90;;;;;;10493744;28;20044;-67
2021/06/03 21:06:54;;;;;;;;;;;17.10;99.90;;;;;;10509063;28;19928;-67
2021/06/03 21:11:56;;;;;;;;;;;17.10;99.90;;;;;;10489313;28;20015;-67
2021/06/03 21:16:57;;;;;;;;;;;17.20;99.90;;;;;;10494240;28;20357;-67
2021/06/03 21:21:59;;;;;;;;;;;17.20;99.90;;;;;;10521932;28;20018;-60
2021/06/03 21:27:01;;;;;;;;;;;17.20;99.90;;;;;;10496739;28;19997;-59
2021/06/03 21:32:03;;;;;;;;;;;17.10;99.90;;;;;;10497424;28;19931;-60
2021/06/03 21:37:05;;;;;;;;;;;17.10;99.90;;;;;;10489275;28;19950;-59
2021/06/03 21:42:07;;;;;;;;;;;17.10;99.90;;;;;;10506334;28;19928;-59
2021/06/03 21:47:10;;;;;;;;;;;17.10;99.90;;;;;;10518158;28;20031;-59
2021/06/03 21:52:13;;;;;;;;;;;17.10;99.90;;;;;;10495125;28;19927;-60
2021/06/03 21:57:14;;;;;;;;;;;17.10;99.90;;;;;;10529617;28;19974;-59
2021/06/03 22:02:17;;;;;;;;;;;17.00;99.90;;;;;;10519805;28;19970;-59
2021/06/03 22:07:19;;;;;;;;;;;17.10;99.90;;;;;;10507306;28;20026;-59
2021/06/03 22:12:20;;;;;;;;;;;17.00;99.90;;;;;;10506420;28;19931;-59
2021/06/03 22:17:22;;;;;;;;;;;16.90;99.90;;;;;;10510000;28;19931;-59
2021/06/03 22:22:24;;;;;;;;;;;16.90;99.90;;;;;;10514864;28;19925;-59
2021/06/03 22:27:26;;;;;;;;;;;16.80;99.90;;;;;;10497797;28;20019;-59
2021/06/03 22:32:27;;;;;;;;;;;16.90;99.90;;;;;;10525429;28;20010;-60
2021/06/03 22:37:29;;;;;;;;;;;16.90;99.90;;;;;;10513214;28;19950;-59
2021/06/03 22:42:31;;;;;;;;;;;16.80;99.90;;;;;;10509292;28;20458;-59
2021/06/03 22:47:35;;;;;;;;;;;16.80;99.90;;;;;;10520023;28;20661;-59
2021/06/03 22:52:37;;;;;;;;;;;16.90;99.90;;;;;;10508722;28;20383;-59
2021/06/03 22:57:39;;;;;;;;;;;16.90;99.90;;;;;;10530732;28;20373;-59
2021/06/03 23:02:40;;;;;;;;;;;16.70;99.90;;;;;;10520603;28;20134;-59
2021/06/03 23:07:43;;;;;;;;;;;16.70;99.90;;;;;;10507620;28;20283;-59
2021/06/03 23:12:45;;;;;;;;;;;16.80;99.90;;;;;;10519841;28;20027;-59
2021/06/03 23:17:47;;;;;;;;;;;16.80;99.90;;;;;;10505574;28;20046;-60
2021/06/03 23:22:49;;;;;;;;;;;16.80;99.90;;;;;;10522813;28;19932;-59
2021/06/03 23:27:51;;;;;;;;;;;16.80;99.90;;;;;;10531550;28;19927;-59
2021/06/03 23:32:53;;;;;;;;;;;16.90;99.90;;;;;;10533247;28;20019;-59
2021/06/03 23:37:55;;;;;;;;;;;16.90;99.90;;;;;;10521538;28;20008;-59
2021/06/03 23:42:57;;;;;;;;;;;16.80;99.90;;;;;;10504153;28;19934;-59
2021/06/03 23:48:00;;;;;;;;;;;16.90;99.90;;;;;;10520984;28;20350;-59
2021/06/03 23:53:02;;;;;;;;;;;16.80;99.90;;;;;;10501437;28;20022;-59
2021/06/03 23:58:04;;;;;;;;;;;16.80;99.90;;;;;;10502448;28;20427;-59
